Time;durP1;ratioP1;P1;durP2;ratioP2;P2;SDS_P1;SDS_P2;PMS_P1;PMS_P2;Temp;Humidity;BMP_temperature;BMP_pressure;BME280_temperature;BME280_humidity;BME280_pressure;Samples;Min_cycle;Max_cycle;Signal;HPM_P1;HPM_P2
2022/12/30 00:01:00;;;;;;;6.45;2.90;;;;;;;;;;5108576;27;20054;-75
2022/12/30 00:03:26;;;;;;;6.00;2.78;;;;;;;;;;5109171;27;20055;-76
2022/12/30 00:05:53;;;;;;;4.78;3.28;;;;;;;;;;5106104;27;20112;-74
2022/12/30 00:11:04;;;;;;;7.35;3.80;;;;;;;;;;5114241;27;20067;-76
2022/12/30 00:33:22;;;;;;;4.15;2.40;;;;;;;;;;5111871;27;20092;-75
2022/12/30 00:35:49;;;;;;;4.32;2.40;;;;;;;;;;5111321;27;20042;-75
2022/12/30 00:38:15;;;;;;;5.85;3.28;;;;;;;;;;5106992;27;20047;-76
2022/12/30 00:43:07;;;;;;;5.43;3.10;;;;;;;;;;5111402;27;20019;-74
2022/12/30 00:43:27;;;;;;;6.38;2.45;;;;;;;;;;5111188;27;20070;-75
2022/12/30 00:45:53;;;;;;;4.38;2.15;;;;;;;;;;5114459;27;20103;-74
2022/12/30 00:56:35;;;;;;;6.20;2.50;;;;;;;;;;5109678;27;20085;-76
2022/12/30 00:59:01;;;;;;;3.50;2.92;;;;;;;;;;5107195;27;20122;-74
2022/12/30 01:01:27;;;;;;;3.70;2.55;;;;;;;;;;5106490;27;20028;-75
2022/12/30 01:03:53;;;;;;;5.45;2.75;;;;;;;;;;5117133;27;20142;-74
2022/12/30 01:06:19;;;;;;;4.43;2.63;;;;;;;;;;5112620;27;20019;-74
2022/12/30 01:08:46;;;;;;;4.40;2.90;;;;;;;;;;5110379;27;20026;-74
2022/12/30 01:11:12;;;;;;;5.22;3.00;;;;;;;;;;5107890;27;20036;-74
2022/12/30 01:13:38;;;;;;;4.45;2.65;;;;;;;;;;5109815;27;20012;-75
2022/12/30 01:16:08;;;;;;;5.35;3.03;;;;;;;;;;5104706;27;20039;-74
2022/12/30 01:18:34;;;;;;;5.55;3.40;;;;;;;;;;5108894;27;20019;-75
2022/12/30 01:21:01;;;;;;;6.43;3.15;;;;;;;;;;5110439;27;20441;-74
2022/12/30 01:23:27;;;;;;;5.00;3.03;;;;;;;;;;5105954;27;20454;-75
2022/12/30 01:25:53;;;;;;;5.95;3.42;;;;;;;;;;5106435;27;20267;-74
2022/12/30 01:28:19;;;;;;;4.20;3.03;;;;;;;;;;5112356;27;20047;-74
2022/12/30 01:30:46;;;;;;;5.28;3.33;;;;;;;;;;5115805;27;20027;-75
2022/12/30 01:33:12;;;;;;;6.68;3.95;;;;;;;;;;5115370;27;20040;-74
2022/12/30 01:35:38;;;;;;;6.93;4.10;;;;;;;;;;5108111;27;20024;-76
2022/12/30 01:38:05;;;;;;;6.60;3.80;;;;;;;;;;5123627;27;20070;-76
2022/12/30 01:40:39;;;;;;;5.22;3.30;;;;;;;;;;5111397;27;20126;-76
2022/12/30 01:43:05;;;;;;;6.05;3.17;;;;;;;;;;5114750;27;20016;-77
2022/12/30 01:45:31;;;;;;;6.07;3.47;;;;;;;;;;5111311;27;20031;-75
2022/12/30 01:48:16;;;;;;;4.72;3.03;;;;;;;;;;5112866;27;20019;-76
2022/12/30 01:50:47;;;;;;;5.40;3.65;;;;;;;;;;5115294;27;20574;-75
2022/12/30 01:53:15;;;;;;;5.40;3.35;;;;;;;;;;5116833;27;20619;-77
2022/12/30 01:55:57;;;;;;;6.88;4.30;;;;;;;;;;5116885;27;20035;-76
2022/12/30 01:58:49;;;;;;;7.13;4.03;;;;;;;;;;5111414;27;20019;-76
2022/12/30 02:01:16;;;;;;;8.23;3.92;;;;;;;;;;5112751;27;20286;-75
2022/12/30 02:03:46;;;;;;;7.10;3.65;;;;;;;;;;5115846;27;20133;-76
2022/12/30 02:06:16;;;;;;;8.23;3.38;;;;;;;;;;5112748;27;20102;-76
2022/12/30 02:08:43;;;;;;;7.88;3.75;;;;;;;;;;5116910;27;20015;-75
2022/12/30 02:11:09;;;;;;;5.80;3.63;;;;;;;;;;5115337;27;20043;-77
2022/12/30 02:13:35;;;;;;;7.18;4.00;;;;;;;;;;5115037;27;20023;-77
2022/12/30 02:16:01;;;;;;;5.78;3.50;;;;;;;;;;5129349;27;20114;-77
2022/12/30 02:18:34;;;;;;;5.20;3.10;;;;;;;;;;5108717;27;20019;-77
2022/12/30 02:21:19;;;;;;;6.13;3.47;;;;;;;;;;5110341;27;20059;-75
2022/12/30 02:23:45;;;;;;;8.70;3.60;;;;;;;;;;5112703;27;20034;-75
2022/12/30 02:26:30;;;;;;;6.07;3.05;;;;;;;;;;5113568;27;20110;-76
2022/12/30 02:29:11;;;;;;;5.68;3.60;;;;;;;;;;5112903;27;20031;-77
2022/12/30 02:32:02;;;;;;;8.45;4.65;;;;;;;;;;5109437;27;20621;-76
2022/12/30 02:34:48;;;;;;;5.53;3.20;;;;;;;;;;5121140;27;20506;-77
2022/12/30 02:37:23;;;;;;;5.75;3.60;;;;;;;;;;5065639;27;20118;-76
2022/12/30 02:39:49;;;;;;;5.30;3.78;;;;;;;;;;5115102;27;20032;-76
2022/12/30 02:45:43;;;;;;;6.20;3.67;;;;;;;;;;5119228;27;20030;-76
2022/12/30 02:48:15;;;;;;;4.53;3.47;;;;;;;;;;5105000;27;20047;-76
2022/12/30 02:53:29;;;;;;;6.40;3.85;;;;;;;;;;5111112;27;20038;-76
2022/12/30 02:55:55;;;;;;;6.15;3.97;;;;;;;;;;5119415;27;20084;-76
2022/12/30 02:58:24;;;;;;;7.57;4.80;;;;;;;;;;5112742;27;20030;-76
2022/12/30 03:03:59;;;;;;;5.78;4.53;;;;;;;;;;5107687;27;20039;-75
2022/12/30 03:06:40;;;;;;;5.85;4.15;;;;;;;;;;5115541;27;20018;-75
2022/12/30 03:09:12;;;;;;;6.77;4.37;;;;;;;;;;5114044;27;20438;-77
2022/12/30 03:11:59;;;;;;;10.57;4.97;;;;;;;;;;5115578;27;20539;-75
2022/12/30 03:14:42;;;;;;;5.82;4.03;;;;;;;;;;5113805;27;20027;-76
2022/12/30 03:17:11;;;;;;;7.55;4.57;;;;;;;;;;5114021;27;20089;-76
2022/12/30 03:19:39;;;;;;;6.68;4.25;;;;;;;;;;5114847;27;20024;-74
2022/12/30 03:27:02;;;;;;;6.25;4.50;;;;;;;;;;5113207;27;20030;-74
2022/12/30 03:27:44;;;;;;;7.78;4.05;;;;;;;;;;5090421;27;20028;-74
2022/12/30 03:30:11;;;;;;;7.57;4.05;;;;;;;;;;5114607;27;20021;-74
2022/12/30 03:32:37;;;;;;;4.95;3.88;;;;;;;;;;5116305;27;20491;-74
2022/12/30 03:35:04;;;;;;;4.97;4.07;;;;;;;;;;5124118;27;20019;-74
2022/12/30 03:37:32;;;;;;;8.15;4.10;;;;;;;;;;5113543;27;20400;-74
2022/12/30 03:40:10;;;;;;;5.50;3.78;;;;;;;;;;5110922;27;20410;-74
2022/12/30 03:42:36;;;;;;;5.50;4.40;;;;;;;;;;5119689;27;20015;-74
2022/12/30 03:45:03;;;;;;;5.80;4.25;;;;;;;;;;5117469;27;20019;-73
2022/12/30 03:47:29;;;;;;;7.50;4.32;;;;;;;;;;5115653;27;20019;-75
2022/12/30 03:49:56;;;;;;;5.93;3.90;;;;;;;;;;5114178;27;20024;-74
2022/12/30 03:52:22;;;;;;;7.38;4.50;;;;;;;;;;5122799;27;20030;-74
2022/12/30 03:54:51;;;;;;;6.85;4.40;;;;;;;;;;5119717;27;20042;-75
2022/12/30 03:57:18;;;;;;;5.80;4.63;;;;;;;;;;5116691;27;20031;-73
2022/12/30 03:59:47;;;;;;;7.07;4.47;;;;;;;;;;5114261;27;20030;-74
2022/12/30 04:02:13;;;;;;;5.72;4.07;;;;;;;;;;5117693;27;20086;-74
2022/12/30 04:04:40;;;;;;;5.38;3.88;;;;;;;;;;5119856;27;20023;-75
2022/12/30 04:07:06;;;;;;;7.32;3.92;;;;;;;;;;5114237;27;20032;-74
2022/12/30 04:09:32;;;;;;;11.07;4.30;;;;;;;;;;5108563;27;20020;-74
2022/12/30 04:11:59;;;;;;;9.68;4.30;;;;;;;;;;5110688;27;20867;-74
2022/12/30 04:14:25;;;;;;;7.65;4.20;;;;;;;;;;5114017;27;20419;-74
2022/12/30 04:16:51;;;;;;;10.65;5.53;;;;;;;;;;5114467;27;20397;-74
2022/12/30 04:19:17;;;;;;;6.65;5.05;;;;;;;;;;5107892;27;20107;-74
2022/12/30 04:21:43;;;;;;;8.00;5.10;;;;;;;;;;5107216;27;20030;-74
2022/12/30 04:24:09;;;;;;;6.10;4.47;;;;;;;;;;5107609;27;20029;-75
2022/12/30 04:26:36;;;;;;;8.02;4.90;;;;;;;;;;5107075;27;20110;-78
2022/12/30 04:29:02;;;;;;;7.70;4.63;;;;;;;;;;5108136;27;20031;-75
2022/12/30 04:31:28;;;;;;;6.07;4.72;;;;;;;;;;5111295;27;20043;-77
2022/12/30 04:33:54;;;;;;;6.45;4.47;;;;;;;;;;5106611;27;20767;-76
2022/12/30 04:36:22;;;;;;;7.50;4.45;;;;;;;;;;5112397;27;20146;-75
2022/12/30 04:38:48;;;;;;;5.97;4.97;;;;;;;;;;5107832;27;20096;-76
2022/12/30 04:41:19;;;;;;;7.45;4.93;;;;;;;;;;5109491;27;20534;-76
2022/12/30 04:43:46;;;;;;;9.27;5.97;;;;;;;;;;5109300;27;20019;-76
2022/12/30 04:46:13;;;;;;;9.18;5.65;;;;;;;;;;5101642;27;20023;-75
2022/12/30 04:48:39;;;;;;;7.63;5.45;;;;;;;;;;5111854;27;20015;-76
2022/12/30 04:51:05;;;;;;;9.38;5.57;;;;;;;;;;5109155;27;20040;-76
2022/12/30 04:53:32;;;;;;;9.43;4.90;;;;;;;;;;5108123;27;20055;-76
2022/12/30 04:55:58;;;;;;;8.43;4.82;;;;;;;;;;5107120;27;20076;-75
2022/12/30 04:58:25;;;;;;;7.97;4.93;;;;;;;;;;5115184;27;20027;-75
2022/12/30 05:00:52;;;;;;;6.00;4.95;;;;;;;;;;5111470;27;20023;-76
2022/12/30 05:03:18;;;;;;;6.93;4.20;;;;;;;;;;5115992;27;20016;-74
2022/12/30 05:05:44;;;;;;;5.80;4.28;;;;;;;;;;5103729;27;20028;-75
2022/12/30 05:08:11;;;;;;;7.15;4.55;;;;;;;;;;5106926;27;20054;-77
2022/12/30 05:10:38;;;;;;;5.78;4.00;;;;;;;;;;5116390;27;20099;-77
2022/12/30 05:13:05;;;;;;;6.72;4.03;;;;;;;;;;5107231;27;20038;-76
2022/12/30 05:15:31;;;;;;;7.10;4.30;;;;;;;;;;5108179;27;20015;-76
2022/12/30 05:17:57;;;;;;;5.60;4.03;;;;;;;;;;5106117;27;20807;-76
2022/12/30 05:20:24;;;;;;;5.15;4.00;;;;;;;;;;5109191;27;20023;-76
2022/12/30 05:22:50;;;;;;;5.85;3.88;;;;;;;;;;5111702;27;20024;-74
2022/12/30 05:28:01;;;;;;;7.90;3.90;;;;;;;;;;5105302;27;20672;-77
2022/12/30 05:30:27;;;;;;;6.47;3.53;;;;;;;;;;5105464;27;20027;-76
2022/12/30 05:32:54;;;;;;;5.97;3.47;;;;;;;;;;5105458;27;20038;-76
2022/12/30 05:35:20;;;;;;;5.03;3.97;;;;;;;;;;5109407;27;20042;-76
2022/12/30 05:37:46;;;;;;;7.72;3.88;;;;;;;;;;5109657;27;20047;-75
2022/12/30 05:40:13;;;;;;;15.23;4.07;;;;;;;;;;5106508;27;20829;-77
2022/12/30 05:42:39;;;;;;;7.03;3.70;;;;;;;;;;5104028;27;20019;-76
2022/12/30 05:45:06;;;;;;;5.60;3.60;;;;;;;;;;5107824;27;20569;-77
2022/12/30 05:47:32;;;;;;;7.95;4.22;;;;;;;;;;5112448;27;20040;-76
2022/12/30 05:49:58;;;;;;;5.45;3.75;;;;;;;;;;5110499;27;20024;-76
2022/12/30 05:52:25;;;;;;;7.45;3.72;;;;;;;;;;5105105;27;20044;-77
2022/12/30 05:54:51;;;;;;;4.10;2.92;;;;;;;;;;5106277;27;20030;-76
2022/12/30 05:57:17;;;;;;;6.32;3.53;;;;;;;;;;5109134;27;20174;-76
2022/12/30 05:59:43;;;;;;;4.22;2.70;;;;;;;;;;5110532;27;20063;-76
2022/12/30 06:02:09;;;;;;;8.30;3.15;;;;;;;;;;5109698;27;20023;-76
2022/12/30 06:04:35;;;;;;;5.25;3.05;;;;;;;;;;5106188;27;20023;-76
2022/12/30 06:07:02;;;;;;;4.38;2.72;;;;;;;;;;5114339;27;20491;-75
2022/12/30 06:09:28;;;;;;;4.18;2.88;;;;;;;;;;5109419;27;20562;-75
2022/12/30 06:11:54;;;;;;;4.25;2.80;;;;;;;;;;5112281;27;20596;-76
2022/12/30 06:14:21;;;;;;;4.45;3.15;;;;;;;;;;5104468;27;20507;-74
2022/12/30 06:16:48;;;;;;;5.13;3.63;;;;;;;;;;5111210;27;20038;-75
2022/12/30 06:19:14;;;;;;;6.25;3.00;;;;;;;;;;5113726;27;20027;-75
2022/12/30 06:21:40;;;;;;;4.28;3.13;;;;;;;;;;5116845;27;20023;-74
2022/12/30 06:24:07;;;;;;;6.80;3.10;;;;;;;;;;5111557;27;20016;-76
2022/12/30 06:26:33;;;;;;;7.53;3.00;;;;;;;;;;5110780;27;20055;-75
2022/12/30 06:28:59;;;;;;;5.32;2.67;;;;;;;;;;5124953;27;20023;-77
2022/12/30 06:31:26;;;;;;;5.28;3.03;;;;;;;;;;5112584;27;20506;-75
2022/12/30 06:33:52;;;;;;;4.63;3.30;;;;;;;;;;5112788;27;20459;-76
2022/12/30 06:36:18;;;;;;;4.45;3.13;;;;;;;;;;5112388;27;20056;-75
2022/12/30 06:38:44;;;;;;;3.70;2.95;;;;;;;;;;5108040;27;20036;-75
2022/12/30 06:41:10;;;;;;;5.10;3.10;;;;;;;;;;5112871;27;20113;-75
2022/12/30 06:43:36;;;;;;;4.93;3.28;;;;;;;;;;5114136;27;20019;-75
2022/12/30 06:46:02;;;;;;;6.53;3.17;;;;;;;;;;5116577;27;20033;-75
2022/12/30 06:48:29;;;;;;;5.50;2.85;;;;;;;;;;5111518;27;20059;-76
2022/12/30 06:50:59;;;;;;;6.05;3.25;;;;;;;;;;5115286;27;20045;-75
2022/12/30 06:53:25;;;;;;;4.53;2.85;;;;;;;;;;5115308;27;20116;-75
2022/12/30 06:55:51;;;;;;;5.68;3.08;;;;;;;;;;5111060;27;20110;-75
2022/12/30 06:58:17;;;;;;;5.47;3.22;;;;;;;;;;5111362;27;20502;-75
2022/12/30 07:00:43;;;;;;;5.63;3.17;;;;;;;;;;5106178;27;21031;-75
2022/12/30 07:03:11;;;;;;;6.10;3.15;;;;;;;;;;5122086;27;20464;-74
2022/12/30 07:05:38;;;;;;;6.10;3.50;;;;;;;;;;5112326;27;20023;-74
2022/12/30 07:08:04;;;;;;;4.95;3.33;;;;;;;;;;5111063;27;20023;-75
2022/12/30 07:10:30;;;;;;;4.75;3.72;;;;;;;;;;5111638;27;20023;-75
2022/12/30 07:12:56;;;;;;;4.80;3.63;;;;;;;;;;5114753;27;20026;-75
2022/12/30 07:15:22;;;;;;;6.70;3.75;;;;;;;;;;5113587;27;20016;-75
2022/12/30 07:17:48;;;;;;;6.35;3.70;;;;;;;;;;5118028;27;20019;-76
2022/12/30 07:20:17;;;;;;;5.35;3.83;;;;;;;;;;5109301;27;20953;-75
2022/12/30 07:22:44;;;;;;;6.10;4.30;;;;;;;;;;5118924;27;20011;-74
2022/12/30 07:25:10;;;;;;;6.32;4.97;;;;;;;;;;5113764;27;20034;-75
2022/12/30 07:27:36;;;;;;;5.78;4.55;;;;;;;;;;5114319;27;20102;-76
2022/12/30 07:30:02;;;;;;;6.45;4.55;;;;;;;;;;5112378;27;20132;-75
2022/12/30 07:32:28;;;;;;;5.60;4.20;;;;;;;;;;5108207;27;20031;-75
2022/12/30 07:34:55;;;;;;;7.10;4.55;;;;;;;;;;5114084;27;20022;-75
2022/12/30 07:37:21;;;;;;;6.75;4.72;;;;;;;;;;5113102;27;20062;-75
2022/12/30 07:39:48;;;;;;;5.30;3.53;;;;;;;;;;5114244;27;20114;-75
2022/12/30 07:42:14;;;;;;;8.38;4.15;;;;;;;;;;5106412;27;20037;-75
2022/12/30 07:44:40;;;;;;;6.15;4.22;;;;;;;;;;5108544;27;20727;-75
2022/12/30 07:47:06;;;;;;;10.23;4.63;;;;;;;;;;5108867;27;20023;-75
2022/12/30 07:49:32;;;;;;;7.35;4.72;;;;;;;;;;5111996;27;20020;-75
2022/12/30 07:51:59;;;;;;;6.18;4.10;;;;;;;;;;5112854;27;20072;-74
2022/12/30 07:54:25;;;;;;;7.15;4.55;;;;;;;;;;5108604;27;20031;-75
2022/12/30 07:56:51;;;;;;;7.95;4.00;;;;;;;;;;5107169;27;20098;-75
2022/12/30 07:59:17;;;;;;;7.72;5.43;;;;;;;;;;5112439;27;20513;-75
2022/12/30 08:01:43;;;;;;;8.43;4.68;;;;;;;;;;5115216;27;20510;-75
2022/12/30 08:04:09;;;;;;;5.30;4.50;;;;;;;;;;5111502;27;20499;-76
2022/12/30 08:06:36;;;;;;;5.60;4.00;;;;;;;;;;5114488;27;20037;-75
2022/12/30 08:09:05;;;;;;;5.35;3.80;;;;;;;;;;5112186;27;20537;-76
2022/12/30 08:11:32;;;;;;;6.55;4.00;;;;;;;;;;5114977;27;20080;-75
2022/12/30 08:13:58;;;;;;;5.82;3.80;;;;;;;;;;5113622;27;20787;-75
2022/12/30 08:16:25;;;;;;;4.03;3.53;;;;;;;;;;5105329;27;20032;-76
2022/12/30 08:18:51;;;;;;;5.65;3.70;;;;;;;;;;5103041;27;20031;-77
2022/12/30 08:21:18;;;;;;;5.45;4.15;;;;;;;;;;5112340;27;20546;-75
2022/12/30 08:23:46;;;;;;;7.10;3.90;;;;;;;;;;5110680;27;20472;-75
2022/12/30 08:26:16;;;;;;;6.00;3.97;;;;;;;;;;5110164;27;20552;-74
2022/12/30 08:28:43;;;;;;;11.80;6.00;;;;;;;;;;5107835;27;20019;-75
2022/12/30 08:31:20;;;;;;;11.73;7.22;;;;;;;;;;5114884;27;20050;-75
2022/12/30 08:33:46;;;;;;;13.15;6.55;;;;;;;;;;5116268;27;20031;-75
2022/12/30 08:36:14;;;;;;;13.13;7.97;;;;;;;;;;5107500;27;20046;-75
2022/12/30 08:38:41;;;;;;;11.27;6.93;;;;;;;;;;5096568;27;20629;-79
2022/12/30 08:41:09;;;;;;;11.18;7.22;;;;;;;;;;5087554;28;20221;-77
2022/12/30 08:43:36;;;;;;;12.35;6.40;;;;;;;;;;5099878;27;20045;-78
2022/12/30 08:46:02;;;;;;;9.65;6.03;;;;;;;;;;5092432;27;20030;-76
2022/12/30 08:48:29;;;;;;;12.93;7.05;;;;;;;;;;5086119;27;20835;-74
2022/12/30 08:50:55;;;;;;;15.65;7.80;;;;;;;;;;5087855;27;20441;-78
2022/12/30 08:53:21;;;;;;;21.77;8.07;;;;;;;;;;5085631;28;20577;-79
2022/12/30 08:55:48;;;;;;;13.27;7.60;;;;;;;;;;5091918;28;20059;-78
2022/12/30 08:58:14;;;;;;;13.93;8.80;;;;;;;;;;5086870;28;20024;-76
2022/12/30 09:00:40;;;;;;;15.30;8.55;;;;;;;;;;5088456;28;20108;-77
2022/12/30 09:03:06;;;;;;;20.77;10.20;;;;;;;;;;5091991;28;20027;-75
2022/12/30 09:05:33;;;;;;;15.60;8.80;;;;;;;;;;5093227;28;20149;-76
2022/12/30 09:07:59;;;;;;;12.45;7.95;;;;;;;;;;5099418;27;20097;-74
2022/12/30 09:10:26;;;;;;;14.52;7.80;;;;;;;;;;5093642;28;20016;-77
2022/12/30 09:12:52;;;;;;;9.18;6.90;;;;;;;;;;5082624;28;20119;-78
2022/12/30 09:15:18;;;;;;;9.95;6.13;;;;;;;;;;5085155;28;20106;-77
2022/12/30 09:17:44;;;;;;;13.38;8.05;;;;;;;;;;5093196;28;20150;-74
2022/12/30 09:20:10;;;;;;;11.82;7.40;;;;;;;;;;5093205;28;20016;-77
2022/12/30 09:22:37;;;;;;;10.40;5.97;;;;;;;;;;5090870;28;20024;-76
2022/12/30 09:25:03;;;;;;;9.00;5.15;;;;;;;;;;5091786;28;20024;-79
2022/12/30 09:27:29;;;;;;;4.97;3.50;;;;;;;;;;5090540;28;20031;-74
2022/12/30 09:29:55;;;;;;;6.80;3.90;;;;;;;;;;5094654;28;20627;-78
2022/12/30 09:32:22;;;;;;;6.13;3.40;;;;;;;;;;5090761;28;20036;-77
2022/12/30 09:34:48;;;;;;;5.25;3.38;;;;;;;;;;5090061;28;20589;-75
2022/12/30 09:37:15;;;;;;;9.15;4.32;;;;;;;;;;5085274;28;20039;-76
2022/12/30 09:39:41;;;;;;;6.25;4.72;;;;;;;;;;5121575;27;20464;-75
2022/12/30 09:45:25;;;;;;;5.55;4.43;;;;;;;;;;5110220;27;20099;-76
2022/12/30 09:47:54;;;;;;;8.07;4.10;;;;;;;;;;5107394;27;20055;-79
2022/12/30 09:50:32;;;;;;;8.18;3.80;;;;;;;;;;5118665;27;20019;-77
2022/12/30 09:53:14;;;;;;;7.00;3.58;;;;;;;;;;5117862;27;20031;-76
2022/12/30 09:55:47;;;;;;;8.88;3.65;;;;;;;;;;5110467;27;20589;-76
2022/12/30 09:58:17;;;;;;;6.57;3.95;;;;;;;;;;5111789;27;20031;-76
2022/12/30 10:00:43;;;;;;;5.88;3.65;;;;;;;;;;5109444;27;20623;-78
2022/12/30 10:03:18;;;;;;;8.18;3.95;;;;;;;;;;5110763;27;20092;-76
2022/12/30 10:06:05;;;;;;;5.65;3.42;;;;;;;;;;5112230;27;20031;-73
2022/12/30 10:08:40;;;;;;;4.13;3.10;;;;;;;;;;5110677;27;20111;-74
2022/12/30 10:11:26;;;;;;;7.72;3.35;;;;;;;;;;5112722;27;20486;-74
2022/12/30 10:14:17;;;;;;;8.00;3.28;;;;;;;;;;5124028;27;20036;-76
2022/12/30 10:16:58;;;;;;;3.72;3.25;;;;;;;;;;5112703;27;20059;-78
2022/12/30 10:19:30;;;;;;;6.53;3.42;;;;;;;;;;5112413;27;20032;-74
2022/12/30 10:22:17;;;;;;;4.22;3.83;;;;;;;;;;5110033;27;20027;-75
2022/12/30 10:24:43;;;;;;;6.47;3.75;;;;;;;;;;5119965;27;20027;-77
2022/12/30 10:27:33;;;;;;;4.88;3.45;;;;;;;;;;5119974;27;20126;-74
2022/12/30 10:30:00;;;;;;;4.60;3.17;;;;;;;;;;5104616;27;20050;-75
2022/12/30 10:32:28;;;;;;;5.68;3.53;;;;;;;;;;5111417;27;20045;-75
2022/12/30 10:34:57;;;;;;;5.38;3.70;;;;;;;;;;5111361;27;20540;-78
2022/12/30 10:37:34;;;;;;;6.68;4.35;;;;;;;;;;5113873;27;20665;-78
2022/12/30 10:40:02;;;;;;;5.72;3.92;;;;;;;;;;5112198;27;20062;-75
2022/12/30 10:42:32;;;;;;;5.38;3.42;;;;;;;;;;5109762;27;20022;-77
2022/12/30 10:45:12;;;;;;;5.90;3.53;;;;;;;;;;5112098;27;20115;-78
2022/12/30 10:47:52;;;;;;;5.00;3.28;;;;;;;;;;5110709;27;20114;-79
2022/12/30 10:50:24;;;;;;;9.77;3.65;;;;;;;;;;5114280;27;20062;-77
2022/12/30 10:52:51;;;;;;;5.85;3.80;;;;;;;;;;5114247;27;20187;-73
2022/12/30 10:55:25;;;;;;;5.97;4.00;;;;;;;;;;5109239;27;20019;-80
2022/12/30 10:58:02;;;;;;;9.98;3.90;;;;;;;;;;5113480;27;20098;-78
2022/12/30 11:00:32;;;;;;;6.07;3.85;;;;;;;;;;5111180;27;20015;-80
2022/12/30 11:03:04;;;;;;;5.65;4.10;;;;;;;;;;5108897;27;20054;-79
2022/12/30 11:05:35;;;;;;;9.48;4.70;;;;;;;;;;5110873;27;20023;-75
2022/12/30 11:08:03;;;;;;;9.10;4.32;;;;;;;;;;5109738;27;20015;-79
2022/12/30 11:10:29;;;;;;;7.25;4.95;;;;;;;;;;5114509;27;20023;-80
2022/12/30 11:16:13;;;;;;;4.50;3.90;;;;;;;;;;5071135;27;20029;-79
2022/12/30 11:18:43;;;;;;;5.35;4.03;;;;;;;;;;5110833;27;20762;-79
2022/12/30 11:21:10;;;;;;;5.97;3.70;;;;;;;;;;5119508;27;20026;-79
2022/12/30 11:23:37;;;;;;;6.05;3.22;;;;;;;;;;5109635;27;20016;-75
2022/12/30 11:26:06;;;;;;;5.38;3.65;;;;;;;;;;5110439;27;20027;-77
2022/12/30 11:28:32;;;;;;;6.70;4.05;;;;;;;;;;5108133;27;20008;-78
2022/12/30 11:30:58;;;;;;;6.70;3.50;;;;;;;;;;5118340;27;20110;-80
2022/12/30 11:33:30;;;;;;;4.82;4.10;;;;;;;;;;5113166;27;20038;-77
2022/12/30 11:36:10;;;;;;;5.43;3.95;;;;;;;;;;5110870;27;20032;-74
2022/12/30 11:38:38;;;;;;;5.80;3.83;;;;;;;;;;5109863;27;20067;-80
2022/12/30 11:41:13;;;;;;;6.40;4.28;;;;;;;;;;5114010;27;20035;-79
2022/12/30 11:43:39;;;;;;;5.75;4.80;;;;;;;;;;5117245;27;20019;-74
2022/12/30 11:46:09;;;;;;;6.75;4.55;;;;;;;;;;5110919;27;20672;-80
2022/12/30 11:48:38;;;;;;;7.05;4.32;;;;;;;;;;5107280;27;20035;-79
2022/12/30 11:51:14;;;;;;;6.72;4.35;;;;;;;;;;5110992;27;20020;-76
2022/12/30 11:53:40;;;;;;;6.53;4.13;;;;;;;;;;5119370;27;20026;-75
2022/12/30 11:56:06;;;;;;;8.10;4.40;;;;;;;;;;5111562;27;20038;-79
2022/12/30 11:58:34;;;;;;;7.05;4.43;;;;;;;;;;5109496;27;20023;-79
2022/12/30 12:01:05;;;;;;;6.18;4.05;;;;;;;;;;5108174;27;20020;-79
2022/12/30 12:03:31;;;;;;;5.72;3.75;;;;;;;;;;5109220;27;20011;-81
2022/12/30 12:06:11;;;;;;;5.75;4.50;;;;;;;;;;5110787;27;20368;-80
2022/12/30 12:08:45;;;;;;;6.45;4.75;;;;;;;;;;5113528;27;20026;-75
2022/12/30 12:11:16;;;;;;;8.07;4.68;;;;;;;;;;5110777;27;20030;-77
2022/12/30 12:13:45;;;;;;;9.70;4.57;;;;;;;;;;5105187;27;20020;-82
2022/12/30 12:16:15;;;;;;;5.82;4.18;;;;;;;;;;5119823;27;20206;-78
2022/12/30 12:18:48;;;;;;;8.07;4.65;;;;;;;;;;5109725;27;20049;-78
2022/12/30 12:21:14;;;;;;;6.80;4.82;;;;;;;;;;5109752;27;20026;-77
2022/12/30 12:23:59;;;;;;;9.55;4.80;;;;;;;;;;5107721;27;20345;-74
2022/12/30 12:26:31;;;;;;;5.75;4.75;;;;;;;;;;5111066;27;20034;-75
2022/12/30 12:28:57;;;;;;;;;;;;;;;;;;5114886;27;20076;-73
2022/12/30 12:31:41;;;;;;;5.18;4.43;;;;;;;;;;5114884;27;19911;-74
2022/12/30 12:34:11;;;;;;;10.40;5.72;;;;;;;;;;5116319;27;20062;-74
2022/12/30 12:36:55;;;;;;;10.18;5.00;;;;;;;;;;5104176;27;20023;-73
2022/12/30 12:39:45;;;;;;;8.95;5.13;;;;;;;;;;5118796;27;20438;-77
2022/12/30 12:42:14;;;;;;;7.53;5.00;;;;;;;;;;5085966;27;20619;-76
2022/12/30 12:44:43;;;;;;;6.80;5.07;;;;;;;;;;5107630;27;20018;-77
2022/12/30 12:47:23;;;;;;;7.05;5.72;;;;;;;;;;5109262;27;20467;-75
2022/12/30 12:50:08;;;;;;;6.45;5.18;;;;;;;;;;5119860;27;20021;-78
2022/12/30 12:52:53;;;;;;;7.88;5.28;;;;;;;;;;5110777;27;20031;-77
2022/12/30 12:55:30;;;;;;;11.07;5.40;;;;;;;;;;5108875;27;20027;-77
2022/12/30 12:58:15;;;;;;;27.13;6.38;;;;;;;;;;5104787;27;20759;-74
2022/12/30 13:01:00;;;;;;;7.25;5.47;;;;;;;;;;5118592;27;20029;-77
2022/12/30 13:03:34;;;;;;;8.32;5.03;;;;;;;;;;5113883;27;20105;-73
2022/12/30 13:06:07;;;;;;;7.32;4.82;;;;;;;;;;5110271;27;20043;-73
2022/12/30 13:08:51;;;;;;;9.32;5.35;;;;;;;;;;5113041;27;20027;-76
2022/12/30 13:11:28;;;;;;;8.55;5.25;;;;;;;;;;5109953;27;20076;-73
2022/12/30 13:14:14;;;;;;;7.28;4.82;;;;;;;;;;5110790;27;20023;-74
2022/12/30 13:16:43;;;;;;;6.80;5.30;;;;;;;;;;5111687;27;20375;-74
2022/12/30 13:19:16;;;;;;;6.45;5.18;;;;;;;;;;5110434;27;20034;-72
2022/12/30 13:21:43;;;;;;;6.22;5.10;;;;;;;;;;5103424;27;20613;-73
2022/12/30 13:24:22;;;;;;;7.53;4.95;;;;;;;;;;5121073;27;20054;-73
2022/12/30 13:26:49;;;;;;;12.00;5.57;;;;;;;;;;5113831;27;20015;-73
2022/12/30 13:29:15;;;;;;;40.45;7.00;;;;;;;;;;5112238;27;20023;-74
2022/12/30 13:31:46;;;;;;;20.88;5.75;;;;;;;;;;5113455;27;20055;-73
2022/12/30 13:34:21;;;;;;;18.13;5.82;;;;;;;;;;5121230;27;20034;-74
2022/12/30 13:37:00;;;;;;;11.55;5.85;;;;;;;;;;5116518;27;20542;-74
2022/12/30 13:39:44;;;;;;;7.00;5.10;;;;;;;;;;5113539;27;20473;-73
2022/12/30 13:42:33;;;;;;;8.65;5.88;;;;;;;;;;5107719;27;20495;-74
2022/12/30 13:45:00;;;;;;;6.88;4.97;;;;;;;;;;5113631;27;20053;-73
2022/12/30 13:47:36;;;;;;;9.02;5.85;;;;;;;;;;5120022;27;20034;-74
2022/12/30 13:50:13;;;;;;;13.15;6.32;;;;;;;;;;5112987;27;20024;-73
2022/12/30 13:52:45;;;;;;;11.45;6.38;;;;;;;;;;5113739;27;20027;-74
2022/12/30 13:55:16;;;;;;;10.70;5.85;;;;;;;;;;5112531;27;20494;-73
2022/12/30 13:57:44;;;;;;;10.40;7.05;;;;;;;;;;5118721;27;20051;-73
2022/12/30 14:00:25;;;;;;;13.02;6.68;;;;;;;;;;5111748;27;20034;-73
2022/12/30 14:03:00;;;;;;;11.18;6.13;;;;;;;;;;5114994;27;20015;-73
2022/12/30 14:05:29;;;;;;;7.50;5.53;;;;;;;;;;5110387;27;20828;-73
2022/12/30 14:07:55;;;;;;;7.75;5.65;;;;;;;;;;5123317;27;20019;-73
2022/12/30 14:10:21;;;;;;;7.25;5.82;;;;;;;;;;5115146;27;20061;-74
2022/12/30 14:12:48;;;;;;;10.15;6.15;;;;;;;;;;5109793;27;20042;-73
2022/12/30 14:15:32;;;;;;;9.88;6.03;;;;;;;;;;5110253;27;20011;-74
2022/12/30 14:18:08;;;;;;;7.85;5.55;;;;;;;;;;5109789;27;20122;-73
2022/12/30 14:20:36;;;;;;;14.75;6.32;;;;;;;;;;5119443;27;20509;-73
2022/12/30 14:23:03;;;;;;;10.38;6.70;;;;;;;;;;5112732;27;20478;-73
2022/12/30 14:25:31;;;;;;;10.15;6.80;;;;;;;;;;5118903;27;20024;-72
2022/12/30 14:28:05;;;;;;;9.32;5.70;;;;;;;;;;5111871;27;20022;-74
2022/12/30 14:30:36;;;;;;;12.70;6.43;;;;;;;;;;5119875;27;20023;-74
2022/12/30 14:33:07;;;;;;;11.82;6.35;;;;;;;;;;5112752;27;20504;-74
2022/12/30 14:35:34;;;;;;;9.15;6.15;;;;;;;;;;5112789;27;20023;-74
2022/12/30 14:38:13;;;;;;;8.63;6.30;;;;;;;;;;5109299;27;20046;-75
2022/12/30 14:40:40;;;;;;;8.35;5.93;;;;;;;;;;5114275;27;20035;-77
2022/12/30 14:43:17;;;;;;;9.65;6.50;;;;;;;;;;5113151;27;20023;-76
2022/12/30 14:45:43;;;;;;;10.45;6.45;;;;;;;;;;5113780;27;20034;-77
2022/12/30 14:48:09;;;;;;;12.00;6.80;;;;;;;;;;5109019;27;20580;-77
2022/12/30 14:50:36;;;;;;;9.43;6.25;;;;;;;;;;5109391;27;20034;-76
2022/12/30 14:53:04;;;;;;;8.60;5.85;;;;;;;;;;5120894;27;20031;-78
2022/12/30 14:55:33;;;;;;;8.43;5.70;;;;;;;;;;5110980;27;20012;-76
2022/12/30 14:58:18;;;;;;;9.07;6.30;;;;;;;;;;5114282;27;20027;-79
2022/12/30 15:00:47;;;;;;;8.32;5.97;;;;;;;;;;5108764;27;20031;-76
2022/12/30 15:03:14;;;;;;;9.40;6.63;;;;;;;;;;5114578;27;20480;-73
2022/12/30 15:05:52;;;;;;;11.52;7.47;;;;;;;;;;5110764;27;20562;-74
2022/12/30 15:08:18;;;;;;;10.32;6.90;;;;;;;;;;5114067;27;20015;-77
2022/12/30 15:10:54;;;;;;;9.93;6.45;;;;;;;;;;5109485;27;20027;-75
2022/12/30 15:13:27;;;;;;;12.60;6.75;;;;;;;;;;5110019;27;20031;-76
2022/12/30 15:15:56;;;;;;;10.00;6.78;;;;;;;;;;5113584;27;20047;-75
2022/12/30 15:18:25;;;;;;;12.68;6.82;;;;;;;;;;5117195;27;20023;-74
2022/12/30 15:20:51;;;;;;;10.30;6.88;;;;;;;;;;5116362;27;20042;-76
2022/12/30 15:23:18;;;;;;;12.10;6.60;;;;;;;;;;5107478;27;20383;-75
2022/12/30 15:26:05;;;;;;;15.25;7.28;;;;;;;;;;5110732;27;20023;-74
2022/12/30 15:28:32;;;;;;;11.85;8.23;;;;;;;;;;5114902;27;20027;-74
2022/12/30 15:30:59;;;;;;;8.95;6.50;;;;;;;;;;5107478;27;20120;-74
2022/12/30 15:33:25;;;;;;;11.27;7.78;;;;;;;;;;5108253;27;20499;-77
2022/12/30 15:35:52;;;;;;;11.40;7.97;;;;;;;;;;5113707;27;20157;-73
2022/12/30 15:38:27;;;;;;;10.60;7.45;;;;;;;;;;5111916;27;20055;-74
2022/12/30 15:40:56;;;;;;;11.48;7.63;;;;;;;;;;5120769;27;20019;-75
2022/12/30 15:43:22;;;;;;;11.30;6.65;;;;;;;;;;5108759;27;20026;-74
2022/12/30 15:46:02;;;;;;;11.30;6.97;;;;;;;;;;5110145;27;20058;-74
2022/12/30 15:48:36;;;;;;;9.93;7.00;;;;;;;;;;5115240;27;20646;-74